Cape Moreton Lighthouse, Queensland

10:44 PM AEST on September 20, 2014 (GMT +1000)
Brisbane International | Change Station
CLOSE
Current Station
Airport
Location: Brisbane,
Elevation: 13 ft
Nearby Weather Stations

Elev 13 ft 27.39 °S, 153.13 °E | Updated 14 minutes ago

Partly Cloudy
Partly Cloudy
66 °F
Feels Like 66 °F
N
9
Wind Variable Wind from ESE

Today
High -- | Low -- °F
--% Chance of Precip.
Yesterday
High -- | Low -- °F
Precip. -- in
5:38 AM 5:41 PM
Waning Crescent, 12% visible
Pressure 30.24 in
Visibility 6.2 miles
Clouds Few 2800 ft
Dew Point 50 °F
Humidity 56%
Rainfall 0.00 in
Snow Depth Not available.
UV 0 out of 12
Pollen Not available.
Air Quality Not available.
Flu Activity Not available.
METAR YBBN 201230Z 11008KT 9999 FEW028 19/10 Q1024

More Conditions Fewer Conditions

Pressure 30.24 in
Visibility 6.2 miles
Clouds Few 2800 ft
Dew Point 50 °F
Humidity 56%
Rainfall 0.00 in
Snow Depth Not available.
UV 0 out of 12
Pollen Not available.
Air Quality Not available.
Flu Activity Not available.
METAR YBBN 201230Z 11008KT 9999 FEW028 19/10 Q1024

More Conditions Fewer Conditions

10-Day Weather Forecast

Almanac

Astronomy

Sep. 20, 2014 Rise Set
Actual Time 5:38 AM AEST 5:41 PM AEST
Civil Twilight 5:15 AM AEST 6:04 PM AEST
Nautical Twilight 4:48 AM AEST 6:31 PM AEST
Astronomical Twilight 4:21 AM AEST 6:58 PM AEST
Moon 2:52 AM AEST 2:17 PM AEST
Length of Visible Light 12h 48m
Length of Day
12h 02m
Tomorrow will be 1m 34s longer.
Waning Crescent, 12% of the Moon is Illuminated
Today
Waning Crescent
Sep 24
New
Oct 1
First Quarter
Oct 8
Full
Oct 15
Last Quarter

Yesterday's Extremes

Country Highs Country Lows

Community

WunderPhotos

Upload Photos

1,754,837 photos uploaded!

Nearby

Snow Depth

Not available.

Earthquake Activity

City Distance Mag. Time & Date
No recent earthquake activity has been reported nearby.
Minimum magnitude displayed is 2.5.

Coastal Water Temperatures

Place Temperature
No Stations Reporting

Nearby Weather Stations